createdAt,value
2018-03-02T00:00:38.457Z,47.95
2018-03-02T00:01:27.519Z,46.28
2018-03-02T00:02:16.563Z,36.17
2018-03-02T00:03:05.610Z,40.35
2018-03-02T00:03:54.654Z,45.17
2018-03-02T00:04:43.721Z,49.88
2018-03-02T00:05:32.785Z,51.63
2018-03-02T00:06:22.013Z,49.60
2018-03-02T00:07:11.062Z,51.28
2018-03-02T00:08:00.112Z,51.30
2018-03-02T00:08:49.213Z,57.60
2018-03-02T00:09:38.288Z,54.45
2018-03-02T00:10:27.407Z,59.28
2018-03-02T00:11:16.559Z,67.68
2018-03-02T00:12:05.662Z,61.83
2018-03-02T00:12:54.708Z,67.72
2018-03-02T00:13:43.771Z,106.25
2018-03-02T00:14:32.845Z,85.97
2018-03-02T00:15:21.911Z,79.87
2018-03-02T00:16:10.995Z,83.80
2018-03-02T00:17:00.096Z,86.68
2018-03-02T00:17:49.175Z,77.62
2018-03-02T00:18:38.411Z,75.37
2018-03-02T00:19:27.467Z,72.32
2018-03-02T00:20:16.548Z,71.12
2018-03-02T00:21:05.605Z,58.28
2018-03-02T00:21:54.658Z,68.00
2018-03-02T00:22:43.707Z,57.67
2018-03-02T00:23:32.778Z,67.05
2018-03-02T00:24:21.903Z,69.95
2018-03-02T00:25:10.959Z,79.95
2018-03-02T00:26:00.012Z,64.00
2018-03-02T00:26:49.446Z,70.32
2018-03-02T00:27:38.582Z,69.40
2018-03-02T00:28:27.625Z,51.08
2018-03-02T00:29:16.665Z,59.97
2018-03-02T00:30:05.761Z,59.25
2018-03-02T00:30:54.821Z,80.10
2018-03-02T00:31:43.892Z,58.28
2018-03-02T00:32:32.937Z,57.03
2018-03-02T00:33:21.998Z,58.45
2018-03-02T00:34:11.035Z,53.92
2018-03-02T00:35:00.107Z,52.17
2018-03-02T00:35:49.254Z,56.05
2018-03-02T00:36:38.303Z,53.80
2018-03-02T00:37:27.350Z,55.58
2018-03-02T00:38:16.398Z,51.08
2018-03-02T00:39:05.459Z,46.55
2018-03-02T00:39:54.511Z,48.08
2018-03-02T00:40:43.569Z,47.92
2018-03-02T00:41:32.677Z,49.53
2018-03-02T00:42:21.788Z,59.35
2018-03-02T00:43:10.871Z,62.53
2018-03-02T00:43:59.948Z,61.47
2018-03-02T00:44:48.998Z,58.25
2018-03-02T00:45:38.040Z,53.38
2018-03-02T00:46:27.097Z,56.30
2018-03-02T00:47:16.182Z,50.65
2018-03-02T00:48:05.234Z,48.65
2018-03-02T00:48:54.279Z,49.20
2018-03-02T00:49:43.327Z,52.38
2018-03-02T00:50:32.369Z,53.55
2018-03-02T00:51:21.469Z,52.42
2018-03-02T00:52:10.531Z,52.35
2018-03-02T00:52:59.685Z,52.60
2018-03-02T00:53:48.755Z,53.38
2018-03-02T00:54:37.816Z,49.38
2018-03-02T00:55:26.866Z,50.80
2018-03-02T00:56:15.909Z,47.50
2018-03-02T00:57:04.950Z,48.05
2018-03-02T00:57:54.012Z,45.63
2018-03-02T00:58:43.139Z,49.67
2018-03-02T00:59:32.213Z,66.60
2018-03-02T01:00:21.279Z,64.32
2018-03-02T01:01:10.361Z,61.88
2018-03-02T01:01:59.485Z,56.13
2018-03-02T01:02:48.653Z,49.40
2018-03-02T01:03:37.764Z,45.88
2018-03-02T01:04:26.861Z,46.97
2018-03-02T01:05:15.920Z,48.90
2018-03-02T01:06:04.971Z,51.90
2018-03-02T01:06:54.072Z,50.80
2018-03-02T01:07:43.174Z,52.67
2018-03-02T01:08:32.272Z,48.78
2018-03-02T01:09:21.328Z,48.10
2018-03-02T01:10:10.512Z,49.72
2018-03-02T01:10:59.581Z,52.10
2018-03-02T01:11:48.915Z,53.13
2018-03-02T01:12:37.965Z,48.60
2018-03-02T01:13:27.014Z,49.97
2018-03-02T01:14:16.103Z,49.90
2018-03-02T01:15:05.155Z,52.78
2018-03-02T01:15:54.311Z,56.60
2018-03-02T01:16:43.444Z,64.90
2018-03-02T01:17:32.503Z,57.97
2018-03-02T01:18:21.562Z,55.90
2018-03-02T01:19:10.606Z,56.95
2018-03-02T01:19:59.707Z,55.15
2018-03-02T01:20:48.804Z,58.65
2018-03-02T01:21:37.839Z,51.67
2018-03-02T01:22:26.895Z,56.83
2018-03-02T01:23:15.966Z,52.50
2018-03-02T01:24:05.096Z,52.90
2018-03-02T01:24:54.152Z,50.70
2018-03-02T01:25:43.256Z,53.42
2018-03-02T01:26:32.321Z,49.35
2018-03-02T01:27:21.383Z,50.78
2018-03-02T01:28:10.440Z,48.65
2018-03-02T01:28:59.484Z,50.45
2018-03-02T01:29:48.530Z,49.40
2018-03-02T01:30:37.569Z,49.20
2018-03-02T01:31:26.743Z,52.20
2018-03-02T01:32:15.800Z,46.08
2018-03-02T01:33:04.873Z,49.00
2018-03-02T01:33:53.937Z,48.87
2018-03-02T01:34:46.239Z,50.70
2018-03-02T01:35:35.274Z,50.10
2018-03-02T01:36:24.405Z,52.83
2018-03-02T01:37:13.487Z,53.33
2018-03-02T01:38:02.571Z,50.70
2018-03-02T01:38:51.616Z,50.75
2018-03-02T01:39:40.677Z,47.78
2018-03-02T01:40:29.716Z,48.50
2018-03-02T01:41:18.761Z,49.17
2018-03-02T01:42:07.873Z,47.15
2018-03-02T01:42:56.937Z,46.85
2018-03-02T01:43:45.985Z,48.90
2018-03-02T01:44:35.033Z,49.75
2018-03-02T01:45:24.081Z,47.28
2018-03-02T01:46:13.168Z,48.95
2018-03-02T01:47:02.204Z,48.38
2018-03-02T01:47:51.351Z,47.92
2018-03-02T01:48:40.390Z,51.83
2018-03-02T01:49:29.441Z,49.60
2018-03-02T01:50:18.495Z,49.10
2018-03-02T01:51:07.693Z,50.45
2018-03-02T01:51:56.774Z,51.15
2018-03-02T01:52:45.854Z,51.20
2018-03-02T01:53:34.956Z,51.42
2018-03-02T01:54:24.295Z,50.65
2018-03-02T01:55:13.358Z,54.78
2018-03-02T01:56:02.424Z,53.92
2018-03-02T01:56:51.505Z,56.70
2018-03-02T01:57:40.577Z,57.15
2018-03-02T01:58:29.634Z,51.80
2018-03-02T01:59:18.674Z,58.55
2018-03-02T02:00:07.902Z,52.20
2018-03-02T02:00:56.974Z,50.50
2018-03-02T02:01:46.056Z,50.25
2018-03-02T02:02:35.089Z,40.30
2018-03-02T02:03:24.234Z,40.28
2018-03-02T02:04:13.276Z,39.08
2018-03-02T02:05:02.353Z,43.50
2018-03-02T02:05:51.392Z,42.03
2018-03-02T02:06:40.451Z,40.72
2018-03-02T02:07:29.540Z,40.22
2018-03-02T02:08:18.618Z,40.65
2018-03-02T02:09:07.717Z,41.58
2018-03-02T02:09:56.791Z,43.42
2018-03-02T02:10:45.855Z,43.65
2018-03-02T02:11:34.941Z,42.47
2018-03-02T02:12:24.177Z,41.63
2018-03-02T02:13:13.225Z,43.47
2018-03-02T02:14:02.365Z,43.42
2018-03-02T02:14:51.411Z,41.70
2018-03-02T02:15:40.454Z,43.50
2018-03-02T02:16:29.518Z,41.30
2018-03-02T02:17:18.612Z,41.10
2018-03-02T02:18:07.702Z,39.70
2018-03-02T02:18:56.792Z,40.83
2018-03-02T02:19:48.908Z,42.80
2018-03-02T02:20:37.953Z,39.50
2018-03-02T02:21:27.011Z,40.08
2018-03-02T02:22:16.076Z,38.30
2018-03-02T02:23:05.139Z,40.17
2018-03-02T02:23:54.181Z,42.95
2018-03-02T02:24:43.247Z,44.08
2018-03-02T02:25:32.406Z,45.30
2018-03-02T02:26:21.450Z,46.05
2018-03-02T02:27:10.484Z,46.80
2018-03-02T02:27:59.550Z,43.97
2018-03-02T02:28:48.597Z,48.58
2018-03-02T02:29:37.691Z,50.30
2018-03-02T02:30:26.736Z,52.85
2018-03-02T02:31:15.839Z,54.45
2018-03-02T02:32:04.880Z,48.72
2018-03-02T02:32:53.923Z,50.00
2018-03-02T02:33:43.041Z,49.30
2018-03-02T02:34:32.094Z,55.22
2018-03-02T02:35:21.177Z,61.70
2018-03-02T02:36:10.226Z,49.65
2018-03-02T02:36:59.393Z,46.80
2018-03-02T02:37:48.504Z,48.28
2018-03-02T02:38:37.551Z,48.28
2018-03-02T02:39:26.601Z,50.50
2018-03-02T02:40:15.683Z,48.45
2018-03-02T02:41:04.747Z,51.97
2018-03-02T02:41:53.807Z,53.83
2018-03-02T02:42:42.950Z,49.72
2018-03-02T02:43:32.018Z,50.45
2018-03-02T02:44:21.080Z,50.10
2018-03-02T02:45:10.131Z,52.55
2018-03-02T02:45:59.173Z,51.03
2018-03-02T02:46:48.253Z,52.67
2018-03-02T02:47:37.303Z,51.60
2018-03-02T02:48:26.376Z,49.80
2018-03-02T02:49:15.429Z,49.05
2018-03-02T02:50:04.468Z,47.33
2018-03-02T02:50:53.517Z,46.92
2018-03-02T02:51:42.574Z,46.05
2018-03-02T02:52:31.626Z,46.00
2018-03-02T02:53:20.668Z,48.15
2018-03-02T02:54:09.772Z,45.75
2018-03-02T02:54:58.827Z,46.97
2018-03-02T02:55:47.869Z,46.85
2018-03-02T02:56:36.920Z,45.47
2018-03-02T02:57:25.953Z,52.17
2018-03-02T02:58:15.110Z,50.00
2018-03-02T02:59:04.419Z,48.13
2018-03-02T02:59:53.476Z,47.95
2018-03-02T03:00:42.530Z,49.00
2018-03-02T03:01:31.588Z,48.17
2018-03-02T03:02:20.633Z,49.42
2018-03-02T03:03:09.714Z,49.85
2018-03-02T03:03:58.932Z,50.53
2018-03-02T03:04:47.991Z,61.85
2018-03-02T03:05:37.029Z,56.75
2018-03-02T03:06:26.092Z,69.62
2018-03-02T03:07:15.153Z,68.95
2018-03-02T03:08:04.203Z,66.78
2018-03-02T03:08:53.270Z,63.55
2018-03-02T03:09:42.405Z,69.68
2018-03-02T03:10:31.452Z,67.03
2018-03-02T03:11:20.541Z,67.47
2018-03-02T03:12:09.633Z,65.07
2018-03-02T03:12:58.709Z,65.22
2018-03-02T03:13:47.828Z,62.62
2018-03-02T03:14:36.872Z,59.00
2018-03-02T03:15:25.988Z,62.50
2018-03-02T03:16:15.032Z,62.83
2018-03-02T03:17:04.098Z,60.75
2018-03-02T03:17:53.154Z,58.28
2018-03-02T03:18:42.197Z,59.90
2018-03-02T03:19:31.249Z,59.17
2018-03-02T03:20:20.302Z,61.25
2018-03-02T03:21:09.516Z,60.12
2018-03-02T03:21:58.573Z,60.70
2018-03-02T03:22:47.624Z,64.68
2018-03-02T03:23:36.663Z,62.30
2018-03-02T03:24:25.726Z,53.47
2018-03-02T03:25:14.875Z,51.33
2018-03-02T03:26:03.916Z,47.13
2018-03-02T03:26:52.947Z,56.72
2018-03-02T03:27:41.991Z,52.38
2018-03-02T03:28:31.058Z,50.72
2018-03-02T03:29:20.141Z,45.30
2018-03-02T03:30:09.248Z,47.75
2018-03-02T03:30:58.365Z,48.53
2018-03-02T03:31:47.426Z,49.42
2018-03-02T03:32:36.480Z,47.22
2018-03-02T03:33:25.530Z,49.97
2018-03-02T03:34:14.631Z,42.05
2018-03-02T03:35:03.670Z,41.47
2018-03-02T03:35:52.732Z,43.30
2018-03-02T03:36:41.824Z,41.08
2018-03-02T03:37:30.868Z,42.10
2018-03-02T03:38:19.910Z,42.30
2018-03-02T03:39:08.952Z,44.42
2018-03-02T03:39:58.019Z,41.28
2018-03-02T03:40:47.066Z,42.58
2018-03-02T03:41:36.142Z,49.03
2018-03-02T03:42:25.306Z,47.72
2018-03-02T03:43:14.489Z,57.53
2018-03-02T03:44:03.558Z,53.10
2018-03-02T03:44:52.608Z,50.58
2018-03-02T03:45:41.655Z,45.22
2018-03-02T03:46:30.689Z,48.47
2018-03-02T03:47:19.730Z,46.60
2018-03-02T03:48:08.790Z,49.28
2018-03-02T03:48:57.885Z,47.40
2018-03-02T03:49:46.954Z,48.17
2018-03-02T03:50:36.013Z,52.00
2018-03-02T03:51:25.075Z,51.88
2018-03-02T03:52:14.277Z,47.95
2018-03-02T03:53:03.313Z,50.70
2018-03-02T03:53:52.356Z,48.58
2018-03-02T03:54:41.450Z,47.35
2018-03-02T03:55:30.505Z,48.40
2018-03-02T03:56:19.558Z,47.28
2018-03-02T03:57:08.610Z,46.53
2018-03-02T03:57:57.654Z,48.92
2018-03-02T03:58:46.714Z,61.28
2018-03-02T03:59:35.761Z,46.60
2018-03-02T04:00:24.901Z,46.15
2018-03-02T04:01:13.970Z,40.22
2018-03-02T04:02:03.081Z,41.17
2018-03-02T04:02:52.122Z,41.88
2018-03-02T04:03:41.167Z,42.90
2018-03-02T04:04:30.207Z,42.85
2018-03-02T04:05:19.452Z,42.13
2018-03-02T04:06:08.511Z,44.17
2018-03-02T04:06:57.545Z,42.38
2018-03-02T04:07:46.617Z,42.58
2018-03-02T04:08:35.663Z,43.75
2018-03-02T04:09:24.706Z,46.10
2018-03-02T04:10:13.747Z,45.38
2018-03-02T04:11:03.043Z,44.08
2018-03-02T04:11:52.098Z,44.75
2018-03-02T04:12:41.193Z,47.67
2018-03-02T04:13:30.274Z,45.15
2018-03-02T04:14:19.345Z,49.67
2018-03-02T04:15:08.456Z,48.87
2018-03-02T04:15:57.546Z,48.53
2018-03-02T04:16:46.594Z,50.05
2018-03-02T04:17:35.638Z,53.50
2018-03-02T04:18:24.684Z,118.57
2018-03-02T04:19:13.742Z,67.12
2018-03-02T04:20:02.787Z,60.30
2018-03-02T04:20:51.973Z,56.58
2018-03-02T04:21:41.055Z,53.33
2018-03-02T04:22:30.124Z,42.60
2018-03-02T04:23:19.259Z,46.08
2018-03-02T04:24:08.286Z,47.78
2018-03-02T04:24:57.429Z,48.25
2018-03-02T04:25:46.502Z,49.05
2018-03-02T04:26:35.596Z,48.55
2018-03-02T04:27:24.644Z,50.92
2018-03-02T04:28:13.684Z,47.83
2018-03-02T04:29:02.742Z,48.80
2018-03-02T04:29:51.777Z,50.17
2018-03-02T04:30:40.977Z,50.90
2018-03-02T04:31:30.055Z,52.13
2018-03-02T04:32:19.089Z,45.25
2018-03-02T04:33:08.146Z,49.00
2018-03-02T04:33:57.185Z,46.83
2018-03-02T04:34:46.231Z,46.55
2018-03-02T04:35:35.299Z,44.03
2018-03-02T04:36:24.383Z,45.20
2018-03-02T04:37:13.470Z,41.70
2018-03-02T04:38:02.554Z,51.83
2018-03-02T04:38:51.603Z,70.43
2018-03-02T04:39:40.657Z,68.95
2018-03-02T04:40:29.714Z,118.43
2018-03-02T04:41:18.761Z,141.77
2018-03-02T04:42:08.143Z,68.47
2018-03-02T04:42:57.222Z,101.20
2018-03-02T04:43:46.296Z,97.18
2018-03-02T04:44:35.357Z,48.17
2018-03-02T04:45:24.403Z,47.60
2018-03-02T04:46:13.470Z,61.03
2018-03-02T04:47:02.564Z,55.88
2018-03-02T04:47:51.725Z,48.80
2018-03-02T04:48:40.769Z,48.33
2018-03-02T04:49:29.822Z,41.20
2018-03-02T04:50:18.868Z,50.00
2018-03-02T04:51:07.920Z,45.28
2018-03-02T04:51:56.958Z,43.95
2018-03-02T04:52:46.021Z,43.42
2018-03-02T04:53:35.117Z,50.90
2018-03-02T04:54:24.183Z,47.88
2018-03-02T04:55:13.272Z,55.72
2018-03-02T04:56:02.337Z,60.50
2018-03-02T04:56:51.377Z,53.75
2018-03-02T04:57:40.464Z,49.13
2018-03-02T04:58:29.531Z,54.58
2018-03-02T04:59:18.675Z,57.62
2018-03-02T05:00:07.725Z,89.93
2018-03-02T05:00:56.807Z,63.53
2018-03-02T05:01:45.853Z,98.10
2018-03-02T05:02:34.899Z,97.93
2018-03-02T05:03:23.954Z,97.20
2018-03-02T05:04:13.039Z,95.65
2018-03-02T05:05:02.138Z,118.80
2018-03-02T05:05:51.206Z,91.80
2018-03-02T05:06:40.283Z,105.00
2018-03-02T05:07:29.352Z,104.03
2018-03-02T05:08:18.484Z,89.53
2018-03-02T05:09:07.555Z,91.50
2018-03-02T05:09:56.603Z,91.25
2018-03-02T05:10:45.709Z,86.53
2018-03-02T05:11:34.766Z,91.93
2018-03-02T05:12:23.842Z,87.62
2018-03-02T05:13:12.897Z,87.28
2018-03-02T05:14:01.991Z,80.78
2018-03-02T05:14:51.297Z,75.85
2018-03-02T05:15:40.349Z,72.43
2018-03-02T05:16:29.510Z,73.62
2018-03-02T05:17:18.558Z,68.10
2018-03-02T05:18:07.642Z,65.97
2018-03-02T05:18:56.690Z,68.47
2018-03-02T05:19:45.756Z,65.57
2018-03-02T05:20:34.806Z,64.87
2018-03-02T05:21:23.882Z,63.33
2018-03-02T05:22:12.970Z,58.22
2018-03-02T05:23:02.023Z,66.87
2018-03-02T05:23:51.104Z,67.07
2018-03-02T05:24:40.156Z,71.70
2018-03-02T05:25:29.240Z,66.05
2018-03-02T05:26:18.325Z,71.60
2018-03-02T05:27:07.388Z,50.42
2018-03-02T05:27:56.608Z,52.67
2018-03-02T05:28:45.672Z,70.37
2018-03-02T05:29:34.748Z,72.30
2018-03-02T05:30:23.900Z,93.37
2018-03-02T05:31:13.030Z,65.40
2018-03-02T05:32:02.097Z,88.53
2018-03-02T05:32:51.157Z,83.35
2018-03-02T05:33:40.233Z,92.90
2018-03-02T05:34:29.402Z,208.80
2018-03-02T05:35:18.458Z,95.12
2018-03-02T05:36:07.526Z,97.37
2018-03-02T05:36:56.581Z,94.32
2018-03-02T05:37:45.630Z,79.85
2018-03-02T05:38:34.685Z,76.45
2018-03-02T05:39:23.763Z,71.20
2018-03-02T05:40:12.851Z,86.37
2018-03-02T05:41:01.913Z,115.97
2018-03-02T05:41:50.966Z,100.72
2018-03-02T05:42:40.044Z,77.53
2018-03-02T05:43:31.479Z,80.95
2018-03-02T05:44:20.520Z,57.38
2018-03-02T05:45:10.378Z,59.58
2018-03-02T05:45:59.634Z,66.78
2018-03-02T05:46:48.672Z,79.15
2018-03-02T05:47:37.741Z,68.03
2018-03-02T05:48:26.816Z,64.85
2018-03-02T05:49:15.885Z,105.20
2018-03-02T05:50:04.943Z,81.70
2018-03-02T05:50:53.989Z,88.47
2018-03-02T05:51:43.185Z,66.53
2018-03-02T05:52:32.741Z,69.55
2018-03-02T05:53:21.851Z,71.93
2018-03-02T05:54:10.940Z,55.38
2018-03-02T05:54:59.995Z,53.00
2018-03-02T05:55:49.049Z,60.75
2018-03-02T05:56:38.097Z,56.28
2018-03-02T05:57:27.219Z,81.97
2018-03-02T05:58:16.321Z,83.12
2018-03-02T05:59:05.383Z,67.55
2018-03-02T05:59:54.491Z,67.40
2018-03-02T06:00:43.634Z,77.12
2018-03-02T06:01:32.693Z,90.25
2018-03-02T06:02:21.909Z,102.43
2018-03-02T06:03:10.976Z,90.62
2018-03-02T06:04:00.053Z,84.00
2018-03-02T06:04:49.195Z,102.87
2018-03-02T06:05:38.268Z,92.22
2018-03-02T06:06:27.343Z,86.63
2018-03-02T06:07:16.398Z,84.20
2018-03-02T06:08:05.457Z,98.53
2018-03-02T06:08:54.545Z,98.47
2018-03-02T06:09:43.630Z,88.90
2018-03-02T06:10:32.781Z,115.22
2018-03-02T06:11:21.843Z,122.75
2018-03-02T06:12:10.916Z,104.03
2018-03-02T06:12:59.968Z,97.55
2018-03-02T06:13:49.019Z,91.80
2018-03-02T06:14:38.114Z,80.82
2018-03-02T06:15:27.166Z,68.35
2018-03-02T06:16:16.281Z,64.22
2018-03-02T06:17:05.335Z,52.75
2018-03-02T06:17:54.382Z,56.28
2018-03-02T06:18:43.431Z,59.05
2018-03-02T06:19:32.486Z,79.72
2018-03-02T06:20:21.570Z,75.35
2018-03-02T06:21:10.618Z,76.62
2018-03-02T06:21:59.739Z,78.07
2018-03-02T06:22:48.787Z,71.55
2018-03-02T06:23:37.825Z,67.30
2018-03-02T06:24:26.873Z,82.40
2018-03-02T06:25:15.916Z,77.65
2018-03-02T06:26:04.968Z,76.80
2018-03-02T06:26:54.029Z,82.05
2018-03-02T06:27:43.200Z,115.93
2018-03-02T06:28:32.270Z,99.75
2018-03-02T06:29:21.335Z,104.80
2018-03-02T06:30:10.496Z,101.82
2018-03-02T06:30:59.596Z,138.10
2018-03-02T06:31:48.655Z,119.55
2018-03-02T06:32:37.714Z,155.98
2018-03-02T06:33:26.818Z,137.77
2018-03-02T06:34:15.886Z,140.30
2018-03-02T06:35:04.945Z,136.80
2018-03-02T06:35:54.006Z,126.72
2018-03-02T06:36:43.079Z,131.68
2018-03-02T06:37:32.164Z,141.52
2018-03-02T06:38:21.258Z,110.65
2018-03-02T06:39:10.370Z,101.20
2018-03-02T06:39:59.464Z,102.97
2018-03-02T06:40:48.520Z,107.00
2018-03-02T06:41:37.583Z,97.60
2018-03-02T06:42:26.641Z,92.90
2018-03-02T06:43:15.796Z,91.43
2018-03-02T06:44:04.842Z,84.62
2018-03-02T06:44:54.093Z,87.10
2018-03-02T06:45:43.151Z,76.12
2018-03-02T06:46:32.548Z,81.18
2018-03-02T06:47:21.652Z,91.25
2018-03-02T06:48:10.722Z,86.65
2018-03-02T06:48:59.802Z,55.50
2018-03-02T06:49:48.935Z,58.70
2018-03-02T06:50:38.022Z,70.72
2018-03-02T06:51:27.255Z,95.12
2018-03-02T06:52:16.522Z,75.65
2018-03-02T06:53:05.573Z,76.12
2018-03-02T06:53:54.634Z,99.70
2018-03-02T06:54:43.732Z,85.80
2018-03-02T06:55:32.873Z,87.68
2018-03-02T06:56:22.382Z,89.45
2018-03-02T06:57:11.448Z,89.53
2018-03-02T06:58:00.499Z,93.50
2018-03-02T06:58:49.606Z,132.12
2018-03-02T06:59:38.723Z,122.87
2018-03-02T07:00:27.790Z,113.88
2018-03-02T07:01:17.240Z,108.68
2018-03-02T07:02:06.516Z,99.22
2018-03-02T07:02:55.627Z,102.82
2018-03-02T07:03:44.706Z,122.85
2018-03-02T07:04:33.774Z,102.32
2018-03-02T07:05:22.840Z,81.53
2018-03-02T07:06:12.019Z,95.05
2018-03-02T07:07:01.076Z,93.75
2018-03-02T07:07:50.153Z,92.72
2018-03-02T07:08:39.195Z,93.70
2018-03-02T07:09:28.284Z,90.47
2018-03-02T07:10:17.341Z,92.75
2018-03-02T07:11:06.433Z,94.50
2018-03-02T07:11:55.520Z,109.32
2018-03-02T07:12:44.637Z,115.00
2018-03-02T07:13:33.686Z,99.07
2018-03-02T07:14:22.762Z,93.37
2018-03-02T07:15:11.819Z,86.10
2018-03-02T07:16:00.913Z,89.62
2018-03-02T07:16:50.001Z,159.32
2018-03-02T07:17:39.125Z,133.32
2018-03-02T07:18:28.200Z,113.97
2018-03-02T07:19:17.275Z,172.77
2018-03-02T07:20:06.368Z,199.43
2018-03-02T07:20:55.420Z,172.52
2018-03-02T07:21:44.640Z,118.15
2018-03-02T07:22:33.732Z,141.50
2018-03-02T07:23:22.807Z,135.35
2018-03-02T07:24:11.877Z,144.73
2018-03-02T07:25:00.941Z,139.10
2018-03-02T07:25:50.003Z,143.62
2018-03-02T07:26:39.068Z,151.40
2018-03-02T07:27:28.233Z,149.00
2018-03-02T07:28:17.299Z,144.87
2018-03-02T07:29:06.356Z,148.48
2018-03-02T07:29:55.433Z,139.35
2018-03-02T07:30:44.483Z,144.32
2018-03-02T07:31:33.530Z,145.75
2018-03-02T07:32:22.623Z,151.60
2018-03-02T07:33:11.732Z,151.05
2018-03-02T07:34:01.707Z,154.40
2018-03-02T07:34:50.830Z,152.32
2018-03-02T07:35:39.881Z,140.10
2018-03-02T07:36:28.931Z,137.85
2018-03-02T07:37:17.982Z,143.45
2018-03-02T07:38:07.050Z,144.43
2018-03-02T07:38:56.230Z,146.07
2018-03-02T07:39:45.281Z,188.27
2018-03-02T07:40:34.362Z,168.30
2018-03-02T07:41:23.410Z,158.10
2018-03-02T07:42:12.491Z,158.45
2018-03-02T07:43:01.552Z,180.25
2018-03-02T07:43:50.633Z,158.95
2018-03-02T07:44:39.882Z,156.82
2018-03-02T07:45:28.953Z,150.20
2018-03-02T07:46:18.061Z,169.00
2018-03-02T07:47:07.129Z,164.57
2018-03-02T07:47:56.224Z,159.63
2018-03-02T07:48:45.283Z,142.80
2018-03-02T07:49:34.375Z,148.52
2018-03-02T07:50:23.503Z,144.65
2018-03-02T07:51:12.597Z,144.68
2018-03-02T07:52:01.722Z,143.35
2018-03-02T07:52:50.886Z,149.50
2018-03-02T07:53:39.950Z,158.98
2018-03-02T07:54:29.010Z,155.52
2018-03-02T07:55:18.097Z,161.90
2018-03-02T07:56:07.147Z,155.90
2018-03-02T07:56:56.237Z,156.98
2018-03-02T07:57:45.325Z,163.57
2018-03-02T07:58:34.487Z,187.45
2018-03-02T07:59:23.559Z,172.25
2018-03-02T08:00:12.790Z,177.38
2018-03-02T08:01:01.887Z,187.75
2018-03-02T08:01:50.949Z,191.93
2018-03-02T08:02:40.018Z,175.48
2018-03-02T08:03:29.127Z,170.10
2018-03-02T08:04:18.399Z,202.40
2018-03-02T08:05:07.467Z,227.52
2018-03-02T08:05:57.310Z,156.87
2018-03-02T08:06:46.374Z,166.70
2018-03-02T08:07:35.433Z,157.82
2018-03-02T08:08:24.541Z,147.93
2018-03-02T08:09:13.645Z,140.57
2018-03-02T08:10:02.695Z,106.85
2018-03-02T08:10:51.760Z,120.85
2018-03-02T08:11:40.844Z,108.35
2018-03-02T08:12:29.929Z,99.07
2018-03-02T08:13:18.982Z,83.93
2018-03-02T08:14:08.140Z,106.22
2018-03-02T08:14:57.193Z,154.57
2018-03-02T08:15:46.273Z,166.70
2018-03-02T08:16:35.343Z,180.93
2018-03-02T08:17:24.401Z,162.32
2018-03-02T08:18:13.437Z,152.00
2018-03-02T08:19:02.515Z,120.95
2018-03-02T08:19:51.724Z,114.97
2018-03-02T08:20:40.808Z,108.72
2018-03-02T08:21:29.857Z,89.47
2018-03-02T08:22:18.903Z,144.32
2018-03-02T08:23:07.992Z,98.62
2018-03-02T08:23:57.040Z,75.15
2018-03-02T08:24:46.097Z,103.45
2018-03-02T08:25:35.152Z,102.35
2018-03-02T08:26:24.229Z,135.80
2018-03-02T08:27:13.278Z,112.65
2018-03-02T08:28:02.325Z,116.35
2018-03-02T08:28:51.451Z,106.80
2018-03-02T08:29:40.496Z,101.05
2018-03-02T08:30:29.560Z,113.32
2018-03-02T08:31:18.631Z,121.82
2018-03-02T08:32:07.684Z,101.38
2018-03-02T08:32:56.759Z,138.05
2018-03-02T08:33:45.821Z,138.00
2018-03-02T08:34:35.001Z,138.88
2018-03-02T08:35:24.080Z,114.90
2018-03-02T08:36:13.145Z,95.40
2018-03-02T08:37:02.233Z,97.00
2018-03-02T08:37:51.284Z,83.53
2018-03-02T08:38:40.356Z,78.43
2018-03-02T08:39:29.403Z,84.22
2018-03-02T08:40:18.563Z,90.93
2018-03-02T08:41:07.614Z,121.72
2018-03-02T08:41:56.693Z,106.65
2018-03-02T08:42:45.786Z,127.45
2018-03-02T08:43:34.837Z,136.30
2018-03-02T08:44:24.036Z,108.07
2018-03-02T08:45:13.102Z,128.65
2018-03-02T08:46:02.210Z,79.43
2018-03-02T08:46:51.276Z,60.28
2018-03-02T08:47:40.317Z,81.28
2018-03-02T08:48:29.385Z,131.80
2018-03-02T08:49:18.438Z,113.78
2018-03-02T08:50:07.520Z,141.70
2018-03-02T08:50:56.573Z,123.03
2018-03-02T08:51:45.873Z,91.18
2018-03-02T08:52:34.932Z,110.25
2018-03-02T08:53:23.994Z,100.97
2018-03-02T08:54:13.154Z,95.72
2018-03-02T08:55:02.208Z,94.07
2018-03-02T08:55:51.283Z,106.90
2018-03-02T08:56:40.343Z,156.57
2018-03-02T08:57:29.434Z,107.68
2018-03-02T08:58:18.522Z,240.43
2018-03-02T08:59:07.569Z,133.63
2018-03-02T08:59:56.685Z,121.57
2018-03-02T09:00:45.740Z,121.22
2018-03-02T09:01:34.778Z,108.40
2018-03-02T09:02:23.852Z,80.20
2018-03-02T09:03:12.891Z,81.87
2018-03-02T09:04:01.933Z,89.93
2018-03-02T09:04:51.010Z,98.97
2018-03-02T09:05:40.075Z,98.03
2018-03-02T09:06:29.123Z,101.50
2018-03-02T09:07:18.170Z,101.53
2018-03-02T09:08:07.220Z,114.93
2018-03-02T09:08:56.265Z,109.05
2018-03-02T09:09:45.330Z,112.40
2018-03-02T09:10:35.339Z,103.87
2018-03-02T09:11:24.413Z,107.95
2018-03-02T09:12:13.461Z,127.18
2018-03-02T09:13:02.532Z,117.15
2018-03-02T09:13:51.599Z,96.18
2018-03-02T09:14:40.660Z,102.68
2018-03-02T09:15:29.703Z,119.57
2018-03-02T09:16:21.892Z,113.82
2018-03-02T09:17:10.945Z,118.87
2018-03-02T09:17:59.994Z,148.13
2018-03-02T09:18:49.037Z,129.38
2018-03-02T09:19:38.083Z,138.65
2018-03-02T09:20:27.145Z,122.65
2018-03-02T09:21:16.205Z,118.40
2018-03-02T09:22:05.308Z,125.72
2018-03-02T09:22:54.410Z,94.78
2018-03-02T09:23:43.463Z,104.87
2018-03-02T09:24:32.513Z,99.00
2018-03-02T09:25:21.573Z,110.97
2018-03-02T09:26:10.627Z,86.55
2018-03-02T09:26:59.674Z,70.43
2018-03-02T09:27:48.806Z,84.72
2018-03-02T09:28:37.875Z,83.43
2018-03-02T09:29:26.915Z,83.95
2018-03-02T09:30:15.991Z,82.93
2018-03-02T09:31:05.031Z,76.68
2018-03-02T09:31:54.074Z,93.50
2018-03-02T09:32:43.118Z,101.35
2018-03-02T09:33:32.330Z,85.22
2018-03-02T09:34:21.379Z,85.43
2018-03-02T09:35:10.445Z,79.43
2018-03-02T09:35:59.505Z,80.12
2018-03-02T09:36:48.553Z,80.87
2018-03-02T09:37:37.595Z,86.35
2018-03-02T09:38:26.643Z,83.10
2018-03-02T09:39:15.804Z,90.95
2018-03-02T09:40:04.875Z,120.43
2018-03-02T09:40:53.977Z,151.05
2018-03-02T09:41:43.042Z,73.47
2018-03-02T09:42:32.204Z,86.07
2018-03-02T09:43:21.251Z,62.47
2018-03-02T09:44:10.370Z,82.07
2018-03-02T09:44:59.430Z,55.08
2018-03-02T09:45:48.493Z,70.82
2018-03-02T09:46:37.544Z,60.92
2018-03-02T09:47:26.581Z,50.78
2018-03-02T09:48:15.711Z,45.42
2018-03-02T09:49:04.720Z,51.60
2018-03-02T09:49:53.789Z,63.38
2018-03-02T09:50:42.836Z,47.17
2018-03-02T09:51:31.902Z,42.40
2018-03-02T09:52:20.971Z,48.83
2018-03-02T09:53:10.006Z,62.35
2018-03-02T09:53:59.172Z,48.92
2018-03-02T09:54:48.222Z,64.40
2018-03-02T09:55:37.262Z,64.43
2018-03-02T09:56:26.342Z,80.28
2018-03-02T09:57:15.401Z,72.03
2018-03-02T09:58:04.438Z,66.18
2018-03-02T09:58:53.499Z,68.70
2018-03-02T09:59:42.603Z,74.22
2018-03-02T10:00:31.686Z,68.40
2018-03-02T10:01:20.762Z,73.22
2018-03-02T10:02:09.820Z,52.88
2018-03-02T10:02:58.877Z,61.97
2018-03-02T10:03:47.932Z,62.25
2018-03-02T10:04:36.974Z,70.32
2018-03-02T10:05:26.176Z,56.90
2018-03-02T10:06:15.213Z,63.90
2018-03-02T10:07:04.258Z,80.60
2018-03-02T10:07:53.308Z,75.20
2018-03-02T10:08:42.355Z,74.72
2018-03-02T10:09:31.528Z,73.72
2018-03-02T10:10:20.702Z,74.05
2018-03-02T10:11:09.753Z,65.80
2018-03-02T10:11:58.808Z,71.95
2018-03-02T10:12:47.858Z,66.28
2018-03-02T10:13:36.895Z,77.43
2018-03-02T10:14:25.965Z,78.10
2018-03-02T10:15:15.018Z,100.43
2018-03-02T10:16:04.148Z,78.12
2018-03-02T10:16:53.201Z,84.13
2018-03-02T10:17:42.255Z,89.40
2018-03-02T10:18:31.323Z,89.43
2018-03-02T10:19:20.374Z,89.03
2018-03-02T10:20:09.433Z,95.70
2018-03-02T10:20:58.498Z,103.55
2018-03-02T10:21:47.661Z,74.93
2018-03-02T10:22:36.702Z,91.85
2018-03-02T10:23:25.798Z,95.45
2018-03-02T10:24:14.829Z,92.03
2018-03-02T10:25:03.874Z,89.32
2018-03-02T10:25:52.918Z,86.50
2018-03-02T10:26:41.951Z,86.85
2018-03-02T10:27:31.004Z,104.28